Fort Macon Coast Guard Base, North Carolina
Current Conditions -  °F | °C
As of 4:58 PM on Saturday 25 Oct 2014 (Local Time) from KMRH Reporting Station
Clear Clear  
Wind Chill: 68°   Ceiling: Unl
Heat Index: 68°   Visibility: 10mi
Dew Point: 51°   Wind: 12mph
Humidity: 55%   Direction: 220°SW
Pressure: 29.89"   Gusts: NA
Location:  34.6984°N, 76.7775°W
Report Text: KMRH 252058Z AUTO 22010KT 10SM CLR 20/11 A2989 RMK AO2 SLP123 T02000106 56016 TSNO
Loading
Personal Weather Stations






























Interactive Weather Map
Tropical Storm Tracking
New forecast layout! Learn more

10-Day Weather Forecast

Advertisements
Track Severe Weather on mobile